Time,TemperatureF,DewpointF,PressureIn,WindDirection,WindDirectionDegrees,WindSpeedMPH,WindSpeedGustMPH,Humidity,HourlyPrecipIn,Conditions,Clouds,dailyrainin,SoftwareType,DateUTC
2013-03-10 00:00:00,44.5,33.1,30.19,WSW,248,0.0,0.0,64,0.00,,CLR,0.00,VWS V14.01,2013-03-10 05:00:00,
2013-03-10 00:05:00,44.2,31.6,30.19,WSW,248,0.0,0.0,61,0.00,,CLR,0.00,VWS V14.01,2013-03-10 05:05:00,
2013-03-10 00:10:00,44.1,31.5,30.19,WSW,248,0.0,0.0,61,0.00,,CLR,0.00,VWS V14.01,2013-03-10 05:10:00,
2013-03-10 00:15:00,43.9,31.3,30.19,WSW,248,0.0,0.0,61,0.00,,CLR,0.00,VWS V14.01,2013-03-10 05:15:00,
2013-03-10 00:20:00,43.8,30.8,30.19,WSW,248,0.0,0.0,60,0.00,,CLR,0.00,VWS V14.01,2013-03-10 05:20:00,
2013-03-10 00:25:00,43.6,31.5,30.19,WSW,248,0.0,0.0,62,0.00,,CLR,0.00,VWS V14.01,2013-03-10 05:25:00,
2013-03-10 00:30:00,43.3,30.8,30.19,WSW,248,0.0,0.0,61,0.00,,CLR,0.00,VWS V14.01,2013-03-10 05:30:00,
2013-03-10 00:35:00,43.2,31.9,30.19,WSW,248,0.0,0.0,64,0.00,,CLR,0.00,VWS V14.01,2013-03-10 05:35:00,
2013-03-10 00:40:00,43.1,32.2,30.19,WSW,248,0.0,0.0,65,0.00,,CLR,0.00,VWS V14.01,2013-03-10 05:40:00,
2013-03-10 00:45:00,42.9,30.8,30.19,WSW,248,0.0,0.0,62,0.00,,CLR,0.00,VWS V14.01,2013-03-10 05:45:00,
2013-03-10 00:50:00,42.8,30.3,30.19,WSW,248,0.0,0.0,61,0.00,,CLR,0.00,VWS V14.01,2013-03-10 05:50:00,
2013-03-10 00:55:00,42.8,30.7,30.19,WSW,248,0.0,0.0,62,0.00,,CLR,0.00,VWS V14.01,2013-03-10 05:55:00,
2013-03-10 01:00:00,42.8,30.7,30.19,WSW,248,0.0,0.0,62,0.00,,CLR,0.00,VWS V14.01,2013-03-10 06:00:00,
2013-03-10 01:05:00,42.9,31.6,30.19,WSW,248,0.0,0.0,64,0.00,,CLR,0.00,VWS V14.01,2013-03-10 06:05:00,
2013-03-10 01:10:00,42.9,31.2,30.19,WSW,248,0.0,0.0,63,0.00,,CLR,0.00,VWS V14.01,2013-03-10 06:10:00,
2013-03-10 01:15:00,42.8,31.1,30.19,WSW,248,0.0,0.0,63,0.00,,CLR,0.00,VWS V14.01,2013-03-10 06:15:00,
2013-03-10 01:20:00,42.8,31.9,30.19,WSW,248,0.0,0.0,65,0.00,,CLR,0.00,VWS V14.01,2013-03-10 06:20:00,
2013-03-10 01:25:00,42.6,31.7,30.19,WSW,248,0.0,0.0,65,0.00,,CLR,0.00,VWS V14.01,2013-03-10 06:25:00,
2013-03-10 01:30:00,42.3,30.6,30.19,WSW,248,0.0,0.0,63,0.00,,CLR,0.00,VWS V14.01,2013-03-10 06:30:00,
2013-03-10 01:35:00,42.2,30.5,30.19,WSW,248,0.0,0.0,63,0.00,,CLR,0.00,VWS V14.01,2013-03-10 06:35:00,
2013-03-10 01:40:00,41.9,30.2,30.19,WSW,248,0.0,0.0,63,0.00,,CLR,0.00,VWS V14.01,2013-03-10 06:40:00,
2013-03-10 01:45:00,41.8,30.1,30.19,WSW,248,0.0,0.0,63,0.00,,CLR,0.00,VWS V14.01,2013-03-10 06:45:00,
2013-03-10 01:50:00,41.6,30.7,30.19,WSW,248,0.0,0.0,65,0.00,,CLR,0.00,VWS V14.01,2013-03-10 06:50:00,
2013-03-10 01:55:00,41.6,31.8,30.19,WSW,248,0.0,0.0,68,0.00,,CLR,0.00,VWS V14.01,2013-03-10 06:55:00,
2013-03-10 03:00:00,41.5,31.7,30.18,WSW,248,0.0,0.0,68,0.00,,CLR,0.00,VWS V14.01,2013-03-10 07:00:00,
2013-03-10 03:05:00,41.5,31.7,30.18,WSW,248,0.0,0.0,68,0.00,,CLR,0.00,VWS V14.01,2013-03-10 07:05:00,
2013-03-10 03:10:00,41.2,31.5,30.18,WSW,248,0.0,0.0,68,0.00,,CLR,0.00,VWS V14.01,2013-03-10 07:10:00,
2013-03-10 03:15:00,41.2,31.5,30.18,WSW,248,0.0,0.0,68,0.00,,CLR,0.00,VWS V14.01,2013-03-10 07:15:00,
2013-03-10 03:20:00,41.3,31.5,30.18,WSW,248,0.0,0.0,68,0.00,,CLR,0.00,VWS V14.01,2013-03-10 07:20:00,
2013-03-10 03:25:00,41.3,31.5,30.18,WSW,248,0.0,0.0,68,0.00,,CLR,0.00,VWS V14.01,2013-03-10 07:25:00,
2013-03-10 03:30:00,41.3,31.2,30.18,WSW,248,0.0,0.0,67,0.00,,CLR,0.00,VWS V14.01,2013-03-10 07:30:00,
2013-03-10 03:35:00,41.3,31.2,30.18,WSW,248,0.0,0.0,67,0.00,,CLR,0.00,VWS V14.01,2013-03-10 07:35:00,
2013-03-10 03:40:00,41.5,31.4,30.18,WSW,248,0.0,0.0,67,0.00,,CLR,0.00,VWS V14.01,2013-03-10 07:40:00,
2013-03-10 03:45:00,41.3,30.4,30.18,WSW,248,0.0,0.0,65,0.00,,CLR,0.00,VWS V14.01,2013-03-10 07:45:00,
2013-03-10 03:50:00,41.3,30.4,30.18,WSW,248,0.0,0.0,65,0.00,,CLR,0.00,VWS V14.01,2013-03-10 07:50:00,
2013-03-10 03:55:00,41.2,31.1,30.18,WSW,248,0.0,0.0,67,0.00,,CLR,0.00,VWS V14.01,2013-03-10 07:55:00,
2013-03-10 04:00:00,41.2,32.2,30.17,WSW,248,0.0,0.0,70,0.00,,CLR,0.00,VWS V14.01,2013-03-10 08:00:00,
2013-03-10 04:05:00,41.1,31.7,30.17,WSW,248,0.0,0.0,69,0.00,,CLR,0.00,VWS V14.01,2013-03-10 08:05:00,
2013-03-10 04:10:00,40.8,31.8,30.17,WSW,248,0.0,0.0,70,0.00,,CLR,0.00,VWS V14.01,2013-03-10 08:10:00,
2013-03-10 04:15:00,40.6,31.6,30.17,WSW,248,0.0,0.0,70,0.00,,CLR,0.00,VWS V14.01,2013-03-10 08:15:00,
2013-03-10 04:20:00,40.3,31.0,30.17,WSW,248,0.0,0.0,69,0.00,,CLR,0.00,VWS V14.01,2013-03-10 08:20:00,
2013-03-10 04:25:00,40.2,30.5,30.17,WSW,248,0.0,0.0,68,0.00,,CLR,0.00,VWS V14.01,2013-03-10 08:25:00,
2013-03-10 04:30:00,39.9,29.9,30.16,WSW,248,0.0,0.0,67,0.00,,CLR,0.00,VWS V14.01,2013-03-10 08:30:00,
2013-03-10 04:35:00,39.8,30.1,30.16,SW,215,0.0,3.0,68,0.00,,CLR,0.00,VWS V14.01,2013-03-10 08:35:00,
2013-03-10 04:40:00,39.8,30.8,30.16,SSW,212,0.0,0.0,70,0.00,,CLR,0.00,VWS V14.01,2013-03-10 08:40:00,
2013-03-10 04:45:00,39.8,30.5,30.17,SSW,212,0.0,0.0,69,0.00,,CLR,0.00,VWS V14.01,2013-03-10 08:45:00,
2013-03-10 04:50:00,39.6,30.3,30.17,SSW,212,0.0,0.0,69,0.00,,CLR,0.00,VWS V14.01,2013-03-10 08:50:00,
2013-03-10 04:55:00,39.8,30.8,30.17,SSW,212,0.0,2.0,70,0.00,,CLR,0.00,VWS V14.01,2013-03-10 08:55:00,
2013-03-10 05:00:00,39.8,30.8,30.16,SSW,212,0.0,0.0,70,0.00,,CLR,0.00,VWS V14.01,2013-03-10 09:00:00,
2013-03-10 05:05:00,39.8,31.5,30.16,SSW,212,0.0,0.0,72,0.00,,CLR,0.00,VWS V14.01,2013-03-10 09:05:00,
2013-03-10 05:10:00,39.8,31.5,30.16,SSW,196,0.0,3.0,72,0.00,,CLR,0.00,VWS V14.01,2013-03-10 09:10:00,
2013-03-10 05:15:00,39.8,32.9,30.17,SSE,156,0.0,4.0,76,0.00,,CLR,0.00,VWS V14.01,2013-03-10 09:15:00,
2013-03-10 05:20:00,39.9,33.9,30.17,South,186,0.0,3.0,79,0.00,,CLR,0.00,VWS V14.01,2013-03-10 09:20:00,
2013-03-10 05:25:00,40.1,35.1,30.17,SSE,165,0.0,0.0,82,0.00,,CLR,0.00,VWS V14.01,2013-03-10 09:25:00,
2013-03-10 05:30:00,40.1,35.4,30.16,SSE,165,0.0,1.0,83,0.00,,CLR,0.00,VWS V14.01,2013-03-10 09:30:00,
2013-03-10 05:35:00,40.1,35.4,30.16,SSW,197,0.0,3.0,83,0.00,,CLR,0.00,VWS V14.01,2013-03-10 09:35:00,
2013-03-10 05:40:00,40.1,34.8,30.16,ESE,106,0.0,0.0,81,0.00,,CLR,0.00,VWS V14.01,2013-03-10 09:40:00,
2013-03-10 05:45:00,40.2,35.2,30.16,ESE,106,0.0,0.0,82,0.00,,CLR,0.00,VWS V14.01,2013-03-10 09:45:00,
2013-03-10 05:50:00,40.2,35.5,30.16,ESE,106,0.0,0.0,83,0.00,,CLR,0.00,VWS V14.01,2013-03-10 09:50:00,
2013-03-10 05:55:00,40.2,34.5,30.16,ESE,105,0.0,0.0,80,0.00,,CLR,0.00,VWS V14.01,2013-03-10 09:55:00,
2013-03-10 06:00:00,40.2,33.9,30.16,ESE,105,0.0,0.0,78,0.00,,CLR,0.00,VWS V14.01,2013-03-10 10:00:00,
2013-03-10 06:05:00,40.3,32.3,30.16,ESE,105,0.0,0.0,73,0.00,,CLR,0.00,VWS V14.01,2013-03-10 10:05:00,
2013-03-10 06:10:00,40.9,34.3,30.16,ESE,105,0.0,0.0,77,0.00,,CLR,0.00,VWS V14.01,2013-03-10 10:10:00,
2013-03-10 06:15:00,41.2,33.2,30.17,ESE,105,0.0,0.0,73,0.00,,CLR,0.00,VWS V14.01,2013-03-10 10:15:00,
2013-03-10 06:20:00,41.3,33.0,30.17,ESE,105,0.0,0.0,72,0.00,,CLR,0.00,VWS V14.01,2013-03-10 10:20:00,
2013-03-10 06:25:00,41.5,32.8,30.17,ESE,105,0.0,0.0,71,0.00,,CLR,0.00,VWS V14.01,2013-03-10 10:25:00,
2013-03-10 06:30:00,41.6,32.9,30.17,ESE,105,0.0,0.0,71,0.00,,CLR,0.00,VWS V14.01,2013-03-10 10:30:00,
2013-03-10 06:35:00,41.6,32.9,30.17,ESE,105,0.0,0.0,71,0.00,,CLR,0.00,VWS V14.01,2013-03-10 10:35:00,
2013-03-10 06:40:00,41.8,32.8,30.17,ESE,105,0.0,0.0,70,0.00,,CLR,0.00,VWS V14.01,2013-03-10 10:40:00,
2013-03-10 06:45:00,41.8,32.4,30.18,ESE,105,0.0,0.0,69,0.00,,CLR,0.00,VWS V14.01,2013-03-10 10:45:00,
2013-03-10 06:50:00,42.1,33.7,30.18,ESE,105,0.0,0.0,72,0.00,,CLR,0.00,VWS V14.01,2013-03-10 10:50:00,
2013-03-10 06:55:00,42.2,34.2,30.18,ESE,105,0.0,0.0,73,0.00,,CLR,0.00,VWS V14.01,2013-03-10 10:55:00,
2013-03-10 07:00:00,42.2,33.8,30.19,ESE,105,0.0,0.0,72,0.00,,CLR,0.00,VWS V14.01,2013-03-10 11:00:00,
2013-03-10 07:05:00,42.2,32.4,30.19,ESE,105,0.0,0.0,68,0.00,,CLR,0.00,VWS V14.01,2013-03-10 11:05:00,
2013-03-10 07:10:00,42.2,32.4,30.19,ESE,105,0.0,0.0,68,0.00,,CLR,0.00,VWS V14.01,2013-03-10 11:10:00,
2013-03-10 07:15:00,42.2,32.4,30.20,ESE,105,0.0,0.0,68,0.00,,CLR,0.00,VWS V14.01,2013-03-10 11:15:00,
2013-03-10 07:20:00,42.2,33.1,30.20,ESE,105,0.0,0.0,70,0.00,,CLR,0.00,VWS V14.01,2013-03-10 11:20:00,
2013-03-10 07:25:00,42.2,32.8,30.20,ESE,105,0.0,0.0,69,0.00,,CLR,0.00,VWS V14.01,2013-03-10 11:25:00,
2013-03-10 07:30:00,42.2,32.8,30.21,ESE,105,0.0,0.0,69,0.00,,CLR,0.00,VWS V14.01,2013-03-10 11:30:00,
2013-03-10 07:35:00,42.2,32.8,30.21,ESE,105,0.0,0.0,69,0.00,,CLR,0.00,VWS V14.01,2013-03-10 11:35:00,
2013-03-10 07:40:00,42.1,32.7,30.21,ESE,105,0.0,0.0,69,0.00,,CLR,0.00,VWS V14.01,2013-03-10 11:40:00,
2013-03-10 07:45:00,42.1,33.0,30.21,ESE,105,0.0,0.0,70,0.00,,CLR,0.00,VWS V14.01,2013-03-10 11:45:00,
2013-03-10 07:50:00,42.1,32.3,30.21,ESE,105,0.0,0.0,68,0.00,,CLR,0.00,VWS V14.01,2013-03-10 11:50:00,
2013-03-10 07:55:00,41.9,32.5,30.21,ESE,105,0.0,0.0,69,0.00,,CLR,0.00,VWS V14.01,2013-03-10 11:55:00,
2013-03-10 08:00:00,41.8,32.8,30.21,ESE,105,0.0,0.0,70,0.00,,CLR,0.00,VWS V14.01,2013-03-10 12:00:00,
2013-03-10 08:05:00,41.6,31.8,30.21,ESE,105,0.0,0.0,68,0.00,,CLR,0.00,VWS V14.01,2013-03-10 12:05:00,
2013-03-10 08:10:00,41.8,32.8,30.21,ESE,105,0.0,0.0,70,0.00,,CLR,0.00,VWS V14.01,2013-03-10 12:10:00,
2013-03-10 08:15:00,41.8,33.1,30.22,ESE,105,0.0,0.0,71,0.00,,CLR,0.00,VWS V14.01,2013-03-10 12:15:00,
2013-03-10 08:20:00,41.9,33.9,30.22,ESE,105,0.0,0.0,73,0.00,,CLR,0.00,VWS V14.01,2013-03-10 12:20:00,
2013-03-10 08:25:00,42.1,34.1,30.22,ESE,105,0.0,0.0,73,0.00,,CLR,0.00,VWS V14.01,2013-03-10 12:25:00,
2013-03-10 08:30:00,42.2,34.2,30.22,ESE,105,0.0,0.0,73,0.00,,CLR,0.00,VWS V14.01,2013-03-10 12:30:00,
2013-03-10 08:35:00,42.2,34.2,30.22,ESE,105,0.0,0.0,73,0.00,,CLR,0.00,VWS V14.01,2013-03-10 12:35:00,
2013-03-10 08:40:00,42.3,33.9,30.22,ESE,105,0.0,0.0,72,0.00,,CLR,0.00,VWS V14.01,2013-03-10 12:40:00,
2013-03-10 08:45:00,42.5,34.5,30.22,ESE,105,0.0,0.0,73,0.00,,CLR,0.00,VWS V14.01,2013-03-10 12:45:00,
2013-03-10 08:50:00,42.8,36.1,30.22,ESE,105,0.0,0.0,77,0.00,,CLR,0.00,VWS V14.01,2013-03-10 12:50:00,
2013-03-10 08:55:00,43.1,36.1,30.22,ESE,105,0.0,1.0,76,0.00,,CLR,0.00,VWS V14.01,2013-03-10 12:55:00,
2013-03-10 09:00:00,43.6,36.2,30.24,West,263,0.0,3.0,75,0.00,,CLR,0.00,VWS V14.01,2013-03-10 13:00:00,
2013-03-10 09:05:00,43.9,35.8,30.24,West,263,0.0,0.0,73,0.00,,CLR,0.00,VWS V14.01,2013-03-10 13:05:00,
2013-03-10 09:10:00,44.2,35.8,30.24,West,263,0.0,0.0,72,0.00,,CLR,0.00,VWS V14.01,2013-03-10 13:10:00,
2013-03-10 09:15:00,44.8,36.0,30.24,West,263,0.0,1.0,71,0.00,,CLR,0.00,VWS V14.01,2013-03-10 13:15:00,
2013-03-10 09:20:00,45.2,35.7,30.24,West,263,0.0,0.0,69,0.00,,CLR,0.00,VWS V14.01,2013-03-10 13:20:00,
2013-03-10 09:25:00,45.7,36.1,30.24,West,263,0.0,0.0,69,0.00,,CLR,0.00,VWS V14.01,2013-03-10 13:25:00,
2013-03-10 09:30:00,46.1,36.5,30.24,West,263,0.0,0.0,69,0.00,,CLR,0.00,VWS V14.01,2013-03-10 13:30:00,
2013-03-10 09:35:00,46.7,35.6,30.24,West,263,0.0,0.0,65,0.00,,CLR,0.00,VWS V14.01,2013-03-10 13:35:00,
2013-03-10 09:40:00,47.1,36.0,30.24,West,263,0.0,0.0,65,0.00,,CLR,0.00,VWS V14.01,2013-03-10 13:40:00,
2013-03-10 09:45:00,47.7,35.7,30.24,West,263,0.0,0.0,63,0.00,,CLR,0.00,VWS V14.01,2013-03-10 13:45:00,
2013-03-10 09:50:00,48.6,36.6,30.24,West,263,0.0,0.0,63,0.00,,CLR,0.00,VWS V14.01,2013-03-10 13:50:00,
2013-03-10 09:55:00,49.5,35.3,30.24,West,263,0.0,0.0,58,0.00,,CLR,0.00,VWS V14.01,2013-03-10 13:55:00,
2013-03-10 10:00:00,50.1,35.9,30.23,SW,228,0.0,0.0,58,0.00,,CLR,0.00,VWS V14.01,2013-03-10 14:00:00,
2013-03-10 10:05:00,50.4,35.3,30.23,SW,228,0.0,1.0,56,0.00,,CLR,0.00,VWS V14.01,2013-03-10 14:05:00,
2013-03-10 10:10:00,50.7,35.1,30.23,SSW,204,0.0,0.0,55,0.00,,CLR,0.00,VWS V14.01,2013-03-10 14:10:00,
2013-03-10 10:15:00,51.0,34.5,30.24,SSW,204,0.0,0.0,53,0.00,,CLR,0.00,VWS V14.01,2013-03-10 14:15:00,
2013-03-10 10:20:00,51.4,34.9,30.24,SSW,204,0.0,1.0,53,0.00,,CLR,0.00,VWS V14.01,2013-03-10 14:20:00,
2013-03-10 10:25:00,51.9,35.3,30.24,SSW,207,0.0,1.0,53,0.00,,CLR,0.00,VWS V14.01,2013-03-10 14:25:00,
2013-03-10 10:30:00,52.5,35.4,30.23,SSW,207,0.0,1.0,52,0.00,,CLR,0.00,VWS V14.01,2013-03-10 14:30:00,
2013-03-10 10:35:00,52.9,35.3,30.23,SSW,207,2.0,2.0,51,0.00,,CLR,0.00,VWS V14.01,2013-03-10 14:35:00,
2013-03-10 10:40:00,53.5,34.8,30.23,SSW,197,0.0,2.0,49,0.00,,CLR,0.00,VWS V14.01,2013-03-10 14:40:00,
2013-03-10 10:45:00,54.2,35.0,30.23,South,186,0.0,2.0,48,0.00,,CLR,0.00,VWS V14.01,2013-03-10 14:45:00,
2013-03-10 10:50:00,55.0,35.7,30.23,SSW,196,0.0,5.0,48,0.00,,CLR,0.00,VWS V14.01,2013-03-10 14:50:00,
2013-03-10 10:55:00,55.3,35.4,30.23,SSW,196,0.0,3.0,47,0.00,,CLR,0.00,VWS V14.01,2013-03-10 14:55:00,
2013-03-10 11:00:00,55.1,35.2,30.22,SW,227,0.0,3.0,47,0.00,,CLR,0.00,VWS V14.01,2013-03-10 15:00:00,
2013-03-10 11:05:00,55.3,35.4,30.22,SSW,202,0.0,3.0,47,0.00,,FEW120,0.00,VWS V14.01,2013-03-10 15:05:00,
2013-03-10 11:10:00,55.6,35.7,30.22,South,180,0.0,1.0,47,0.00,,FEW120,0.00,VWS V14.01,2013-03-10 15:10:00,
2013-03-10 11:15:00,56.2,36.3,30.22,SSE,165,0.0,2.0,47,0.00,,FEW120,0.00,VWS V14.01,2013-03-10 15:15:00,
2013-03-10 11:20:00,56.7,36.2,30.22,SSE,164,0.0,2.0,46,0.00,,FEW120,0.00,VWS V14.01,2013-03-10 15:20:00,
2013-03-10 11:25:00,57.2,36.1,30.22,South,186,1.0,4.0,45,0.00,,FEW120,0.00,VWS V14.01,2013-03-10 15:25:00,
2013-03-10 11:30:00,57.2,35.5,30.22,SE,144,2.0,5.0,44,0.00,,FEW120,0.00,VWS V14.01,2013-03-10 15:30:00,
2013-03-10 11:35:00,57.3,35.6,30.22,ESE,111,0.0,3.0,44,0.00,,FEW120,0.00,VWS V14.01,2013-03-10 15:35:00,
2013-03-10 11:40:00,57.8,36.0,30.22,SE,124,0.0,2.0,44,0.00,,FEW120,0.00,VWS V14.01,2013-03-10 15:40:00,
2013-03-10 11:45:00,58.3,36.5,30.21,East,86,1.0,2.0,44,0.00,,CLR,0.00,VWS V14.01,2013-03-10 15:45:00,
2013-03-10 11:50:00,58.6,35.6,30.21,South,190,0.0,6.0,42,0.00,,CLR,0.00,VWS V14.01,2013-03-10 15:50:00,
2013-03-10 11:55:00,58.4,36.0,30.21,SE,126,4.0,9.0,43,0.00,,CLR,0.00,VWS V14.01,2013-03-10 15:55:00,
2013-03-10 12:00:00,58.7,36.3,30.19,East,84,2.0,4.0,43,0.00,,CLR,0.00,VWS V14.01,2013-03-10 16:00:00,
2013-03-10 12:05:00,59.0,36.0,30.19,SE,144,4.0,7.0,42,0.00,,CLR,0.00,VWS V14.01,2013-03-10 16:05:00,
2013-03-10 12:10:00,59.3,36.8,30.19,ESE,111,2.0,4.0,43,0.00,,CLR,0.00,VWS V14.01,2013-03-10 16:10:00,
2013-03-10 12:15:00,60.4,37.2,30.18,SE,138,4.0,7.0,42,0.00,,CLR,0.00,VWS V14.01,2013-03-10 16:15:00,
2013-03-10 12:20:00,60.9,35.8,30.18,SE,131,3.0,6.0,39,0.00,,CLR,0.00,VWS V14.01,2013-03-10 16:20:00,
2013-03-10 12:25:00,60.9,35.8,30.18,SE,139,4.0,7.0,39,0.00,,CLR,0.00,VWS V14.01,2013-03-10 16:25:00,
2013-03-10 12:30:00,60.9,35.8,30.18,SE,145,2.0,5.0,39,0.00,,CLR,0.00,VWS V14.01,2013-03-10 16:30:00,
2013-03-10 12:35:00,60.9,35.8,30.18,SSE,147,4.0,5.0,39,0.00,,CLR,0.00,VWS V14.01,2013-03-10 16:35:00,
2013-03-10 12:40:00,61.5,35.7,30.18,SE,143,0.0,7.0,38,0.00,,CLR,0.00,VWS V14.01,2013-03-10 16:40:00,
2013-03-10 12:45:00,62.0,36.1,30.18,SE,140,4.0,6.0,38,0.00,,CLR,0.00,VWS V14.01,2013-03-10 16:45:00,
2013-03-10 12:50:00,62.7,35.4,30.18,SE,137,4.0,6.0,36,0.00,,CLR,0.00,VWS V14.01,2013-03-10 16:50:00,
2013-03-10 12:55:00,62.6,36.0,30.18,SSE,151,3.0,6.0,37,0.00,,CLR,0.00,VWS V14.01,2013-03-10 16:55:00,
2013-03-10 13:00:00,62.4,35.8,30.17,SE,128,2.0,6.0,37,0.00,,CLR,0.00,VWS V14.01,2013-03-10 17:00:00,
2013-03-10 13:05:00,62.7,34.7,30.17,ENE,74,1.0,5.0,35,0.00,,CLR,0.00,VWS V14.01,2013-03-10 17:05:00,
2013-03-10 13:10:00,62.9,34.8,30.17,SE,143,2.0,5.0,35,0.00,,CLR,0.00,VWS V14.01,2013-03-10 17:10:00,
2013-03-10 13:15:00,62.4,34.4,30.17,SE,140,0.0,9.0,35,0.00,,CLR,0.00,VWS V14.01,2013-03-10 17:15:00,
2013-03-10 13:20:00,62.4,34.4,30.17,SSE,148,5.0,7.0,35,0.00,,CLR,0.00,VWS V14.01,2013-03-10 17:20:00,
2013-03-10 13:25:00,62.7,36.1,30.17,South,169,4.0,8.0,37,0.00,,CLR,0.00,VWS V14.01,2013-03-10 17:25:00,
2013-03-10 13:30:00,63.1,35.0,30.17,SE,138,3.0,9.0,35,0.00,,CLR,0.00,VWS V14.01,2013-03-10 17:30:00,
2013-03-10 13:35:00,63.2,32.9,30.17,SSE,156,4.0,7.0,32,0.00,,CLR,0.00,VWS V14.01,2013-03-10 17:35:00,
2013-03-10 13:40:00,63.5,33.1,30.17,SE,140,8.0,10.0,32,0.00,,CLR,0.00,VWS V14.01,2013-03-10 17:40:00,
2013-03-10 13:45:00,63.2,33.6,30.16,SSE,157,1.0,9.0,33,0.00,,CLR,0.00,VWS V14.01,2013-03-10 17:45:00,
2013-03-10 13:50:00,63.4,33.8,30.16,SSE,153,3.0,9.0,33,0.00,,CLR,0.00,VWS V14.01,2013-03-10 17:50:00,
2013-03-10 13:55:00,63.9,33.5,30.16,SE,130,2.0,6.0,32,0.00,,CLR,0.00,VWS V14.01,2013-03-10 17:55:00,
2013-03-10 14:00:00,64.3,33.8,30.15,SE,139,6.0,11.0,32,0.00,,CLR,0.00,VWS V14.01,2013-03-10 18:00:00,
2013-03-10 14:05:00,64.8,33.5,30.15,SE,145,1.0,6.0,31,0.00,,CLR,0.00,VWS V14.01,2013-03-10 18:05:00,
2013-03-10 14:10:00,65.0,34.5,30.15,SE,133,3.0,6.0,32,0.00,,CLR,0.00,VWS V14.01,2013-03-10 18:10:00,
2013-03-10 14:15:00,65.2,33.8,30.14,SSE,157,5.0,9.0,31,0.00,,CLR,0.00,VWS V14.01,2013-03-10 18:15:00,
2013-03-10 14:20:00,65.2,33.8,30.14,SSE,163,0.0,11.0,31,0.00,,CLR,0.00,VWS V14.01,2013-03-10 18:20:00,
2013-03-10 14:25:00,65.2,33.8,30.14,SE,140,6.0,6.0,31,0.00,,CLR,0.00,VWS V14.01,2013-03-10 18:25:00,
2013-03-10 14:30:00,65.3,33.9,30.13,ESE,111,4.0,9.0,31,0.00,,CLR,0.00,VWS V14.01,2013-03-10 18:30:00,
2013-03-10 14:35:00,65.3,34.7,30.13,South,175,1.0,4.0,32,0.00,,CLR,0.00,VWS V14.01,2013-03-10 18:35:00,
2013-03-10 14:40:00,66.1,34.6,30.13,SSE,156,4.0,6.0,31,0.00,,CLR,0.00,VWS V14.01,2013-03-10 18:40:00,
2013-03-10 14:45:00,65.6,34.2,30.13,SSE,160,4.0,12.0,31,0.00,,CLR,0.00,VWS V14.01,2013-03-10 18:45:00,
2013-03-10 14:50:00,65.2,34.6,30.13,SE,128,2.0,11.0,32,0.00,,CLR,0.00,VWS V14.01,2013-03-10 18:50:00,
2013-03-10 14:55:00,65.3,34.7,30.13,SW,233,1.0,4.0,32,0.00,,CLR,0.00,VWS V14.01,2013-03-10 18:55:00,
2013-03-10 15:00:00,65.3,34.7,30.13,SSE,167,4.0,6.0,32,0.00,,CLR,0.00,VWS V14.01,2013-03-10 19:00:00,
2013-03-10 15:05:00,65.0,34.5,30.13,SSE,151,4.0,7.0,32,0.00,,CLR,0.00,VWS V14.01,2013-03-10 19:05:00,
2013-03-10 15:10:00,65.3,33.9,30.13,SE,136,4.0,7.0,31,0.00,,CLR,0.00,VWS V14.01,2013-03-10 19:10:00,
2013-03-10 15:15:00,65.2,33.0,30.12,SE,134,4.0,11.0,30,0.00,,CLR,0.00,VWS V14.01,2013-03-10 19:15:00,
2013-03-10 15:20:00,65.3,33.1,30.12,SE,146,3.0,6.0,30,0.00,,CLR,0.00,VWS V14.01,2013-03-10 19:20:00,
2013-03-10 15:25:00,65.5,33.3,30.12,SSE,148,7.0,9.0,30,0.00,,CLR,0.00,VWS V14.01,2013-03-10 19:25:00,
2013-03-10 15:30:00,65.5,33.3,30.12,SE,143,1.0,7.0,30,0.00,,CLR,0.00,VWS V14.01,2013-03-10 19:30:00,
2013-03-10 15:35:00,65.6,34.2,30.12,SSE,150,5.0,6.0,31,0.00,,CLR,0.00,VWS V14.01,2013-03-10 19:35:00,
2013-03-10 15:40:00,65.6,34.2,30.12,SSW,197,0.0,7.0,31,0.00,,CLR,0.00,VWS V14.01,2013-03-10 19:40:00,
2013-03-10 15:45:00,65.5,34.1,30.12,SSE,149,4.0,5.0,31,0.00,,CLR,0.00,VWS V14.01,2013-03-10 19:45:00,
2013-03-10 15:50:00,65.6,35.8,30.12,SE,146,7.0,7.0,33,0.00,,CLR,0.00,VWS V14.01,2013-03-10 19:50:00,
2013-03-10 15:55:00,65.2,33.0,30.12,SE,146,5.0,6.0,30,0.00,,CLR,0.00,VWS V14.01,2013-03-10 19:55:00,
2013-03-10 16:00:00,65.2,35.4,30.11,SSE,147,5.0,7.0,33,0.00,,CLR,0.00,VWS V14.01,2013-03-10 20:00:00,
2013-03-10 16:05:00,65.0,34.5,30.11,East,101,6.0,8.0,32,0.00,,CLR,0.00,VWS V14.01,2013-03-10 20:05:00,
2013-03-10 16:10:00,65.2,35.4,30.11,SE,138,5.0,6.0,33,0.00,,CLR,0.00,VWS V14.01,2013-03-10 20:10:00,
2013-03-10 16:15:00,65.2,35.4,30.11,SSE,150,3.0,7.0,33,0.00,,CLR,0.00,VWS V14.01,2013-03-10 20:15:00,
2013-03-10 16:20:00,65.3,35.5,30.11,SE,145,0.0,6.0,33,0.00,,CLR,0.00,VWS V14.01,2013-03-10 20:20:00,
2013-03-10 16:25:00,65.6,35.0,30.11,SE,145,0.0,2.0,32,0.00,,CLR,0.00,VWS V14.01,2013-03-10 20:25:00,
2013-03-10 16:30:00,65.8,35.9,30.12,ESE,117,3.0,4.0,33,0.00,,CLR,0.00,VWS V14.01,2013-03-10 20:30:00,
2013-03-10 16:35:00,65.8,34.3,30.12,SSE,156,4.0,5.0,31,0.00,,CLR,0.00,VWS V14.01,2013-03-10 20:35:00,
2013-03-10 16:40:00,66.1,34.6,30.12,SE,136,5.0,11.0,31,0.00,,CLR,0.00,VWS V14.01,2013-03-10 20:40:00,
2013-03-10 16:45:00,65.6,35.0,30.10,SE,142,1.0,7.0,32,0.00,,CLR,0.00,VWS V14.01,2013-03-10 20:45:00,
2013-03-10 16:50:00,65.3,35.5,30.10,SE,136,2.0,5.0,33,0.00,,CLR,0.00,VWS V14.01,2013-03-10 20:50:00,
2013-03-10 16:55:00,65.5,35.7,30.10,SE,143,2.0,5.0,33,0.00,,CLR,0.00,VWS V14.01,2013-03-10 20:55:00,
2013-03-10 17:00:00,65.3,37.0,30.10,SSE,148,4.0,5.0,35,0.00,,CLR,0.00,VWS V14.01,2013-03-10 21:00:00,
2013-03-10 17:05:00,65.5,36.4,30.10,East,82,4.0,7.0,34,0.00,,CLR,0.00,VWS V14.01,2013-03-10 21:05:00,
2013-03-10 17:10:00,65.6,36.5,30.10,SE,142,2.0,6.0,34,0.00,,CLR,0.00,VWS V14.01,2013-03-10 21:10:00,
2013-03-10 17:15:00,65.5,35.7,30.09,SSE,147,3.0,9.0,33,0.00,,CLR,0.00,VWS V14.01,2013-03-10 21:15:00,
2013-03-10 17:20:00,65.3,37.7,30.09,SE,144,3.0,5.0,36,0.00,,CLR,0.00,VWS V14.01,2013-03-10 21:20:00,
2013-03-10 17:25:00,65.0,36.0,30.09,SE,146,1.0,4.0,34,0.00,,CLR,0.00,VWS V14.01,2013-03-10 21:25:00,
2013-03-10 17:30:00,65.2,36.9,30.09,SE,141,0.0,4.0,35,0.00,,CLR,0.00,VWS V14.01,2013-03-10 21:30:00,
2013-03-10 17:35:00,65.5,36.4,30.09,SE,142,3.0,5.0,34,0.00,,CLR,0.00,VWS V14.01,2013-03-10 21:35:00,
2013-03-10 17:40:00,66.0,36.8,30.09,SE,136,0.0,5.0,34,0.00,,CLR,0.00,VWS V14.01,2013-03-10 21:40:00,
2013-03-10 17:45:00,66.4,36.5,30.09,SSE,148,2.0,4.0,33,0.00,,CLR,0.00,VWS V14.01,2013-03-10 21:45:00,
2013-03-10 17:50:00,66.9,35.3,30.09,East,81,1.0,3.0,31,0.00,,CLR,0.00,VWS V14.01,2013-03-10 21:50:00,
2013-03-10 17:55:00,66.9,36.1,30.09,SE,129,2.0,5.0,32,0.00,,CLR,0.00,VWS V14.01,2013-03-10 21:55:00,
2013-03-10 18:00:00,66.9,36.1,30.08,SE,145,6.0,6.0,32,0.00,,CLR,0.00,VWS V14.01,2013-03-10 22:00:00,
2013-03-10 18:05:00,66.6,35.0,30.08,SSE,150,1.0,7.0,31,0.00,,CLR,0.00,VWS V14.01,2013-03-10 22:05:00,
2013-03-10 18:10:00,66.1,36.9,30.08,SE,139,6.0,9.0,34,0.00,,CLR,0.00,VWS V14.01,2013-03-10 22:10:00,
2013-03-10 18:15:00,65.6,36.5,30.08,SE,143,0.0,6.0,34,0.00,,CLR,0.00,VWS V14.01,2013-03-10 22:15:00,
2013-03-10 18:20:00,65.5,36.4,30.08,SE,125,1.0,3.0,34,0.00,,CLR,0.00,VWS V14.01,2013-03-10 22:20:00,
2013-03-10 18:25:00,65.2,36.2,30.08,ESE,122,1.0,2.0,34,0.00,,CLR,0.00,VWS V14.01,2013-03-10 22:25:00,
2013-03-10 18:30:00,64.8,37.2,30.09,SSE,148,4.0,5.0,36,0.00,,CLR,0.00,VWS V14.01,2013-03-10 22:30:00,
2013-03-10 18:35:00,64.5,37.0,30.09,SE,137,2.0,5.0,36,0.00,,CLR,0.00,VWS V14.01,2013-03-10 22:35:00,
2013-03-10 18:40:00,64.3,36.8,30.09,ESE,121,0.0,4.0,36,0.00,,CLR,0.00,VWS V14.01,2013-03-10 22:40:00,
2013-03-10 18:45:00,64.0,37.9,30.08,ESE,121,0.0,1.0,38,0.00,,CLR,0.00,VWS V14.01,2013-03-10 22:45:00,
2013-03-10 18:50:00,63.7,39.0,30.08,ESE,121,0.0,1.0,40,0.00,,CLR,0.00,VWS V14.01,2013-03-10 22:50:00,
2013-03-10 18:55:00,63.4,39.3,30.08,ESE,121,0.0,1.0,41,0.00,,CLR,0.00,VWS V14.01,2013-03-10 22:55:00,
2013-03-10 19:00:00,63.1,39.0,30.09,ESE,121,0.0,0.0,41,0.00,,CLR,0.00,VWS V14.01,2013-03-10 23:00:00,
2013-03-10 19:05:00,62.7,38.7,30.09,ESE,121,0.0,0.0,41,0.00,,CLR,0.00,VWS V14.01,2013-03-10 23:05:00,
2013-03-10 19:10:00,62.3,38.9,30.09,ESE,121,0.0,0.0,42,0.00,,CLR,0.00,VWS V14.01,2013-03-10 23:10:00,
2013-03-10 19:15:00,61.6,38.9,30.09,ESE,121,0.0,0.0,43,0.00,,CLR,0.00,VWS V14.01,2013-03-10 23:15:00,
2013-03-10 19:20:00,61.2,38.5,30.09,ESE,121,0.0,0.0,43,0.00,,CLR,0.00,VWS V14.01,2013-03-10 23:20:00,
2013-03-10 19:25:00,60.7,37.5,30.09,ESE,121,0.0,0.0,42,0.00,,CLR,0.00,VWS V14.01,2013-03-10 23:25:00,
2013-03-10 19:30:00,60.4,37.8,30.09,ESE,121,0.0,0.0,43,0.00,,CLR,0.00,VWS V14.01,2013-03-10 23:30:00,
2013-03-10 19:35:00,59.9,37.4,30.09,ESE,121,0.0,0.0,43,0.00,,CLR,0.00,VWS V14.01,2013-03-10 23:35:00,
2013-03-10 19:40:00,59.6,37.1,30.09,ESE,121,0.0,0.0,43,0.00,,CLR,0.00,VWS V14.01,2013-03-10 23:40:00,
2013-03-10 19:45:00,59.5,37.6,30.10,ESE,121,0.0,0.0,44,0.00,,CLR,0.00,VWS V14.01,2013-03-10 23:45:00,
2013-03-10 19:50:00,59.2,38.5,30.10,ESE,121,0.0,0.0,46,0.00,,CLR,0.00,VWS V14.01,2013-03-10 23:50:00,
2013-03-10 19:55:00,59.0,37.7,30.10,ESE,121,0.0,0.0,45,0.00,,CLR,0.00,VWS V14.01,2013-03-10 23:55:00,
2013-03-10 20:00:00,58.7,37.4,30.11,ESE,121,0.0,0.0,45,0.00,,CLR,0.00,VWS V14.01,2013-03-11 00:00:00,
2013-03-10 20:05:00,58.4,37.7,30.11,ESE,121,0.0,0.0,46,0.00,,CLR,0.00,VWS V14.01,2013-03-11 00:05:00,
2013-03-10 20:10:00,57.8,37.7,30.11,ESE,121,1.0,1.0,47,0.00,,CLR,0.00,VWS V14.01,2013-03-11 00:10:00,
2013-03-10 20:15:00,57.0,37.0,30.10,ESE,121,0.0,0.0,47,0.00,,CLR,0.00,VWS V14.01,2013-03-11 00:15:00,
2013-03-10 20:20:00,56.6,37.7,30.10,ESE,121,0.0,1.0,49,0.00,,CLR,0.00,VWS V14.01,2013-03-11 00:20:00,
2013-03-10 20:25:00,56.5,38.1,30.10,ESE,121,0.0,0.0,50,0.00,,CLR,0.00,VWS V14.01,2013-03-11 00:25:00,
2013-03-10 20:30:00,56.3,38.4,30.11,ESE,121,0.0,0.0,51,0.00,,CLR,0.00,VWS V14.01,2013-03-11 00:30:00,
2013-03-10 20:35:00,56.0,37.6,30.11,ESE,121,0.0,0.0,50,0.00,,CLR,0.00,VWS V14.01,2013-03-11 00:35:00,
2013-03-10 20:40:00,55.3,37.5,30.11,ESE,121,0.0,0.0,51,0.00,,CLR,0.00,VWS V14.01,2013-03-11 00:40:00,
2013-03-10 20:45:00,54.7,36.9,30.10,ESE,121,0.0,0.0,51,0.00,,CLR,0.00,VWS V14.01,2013-03-11 00:45:00,
2013-03-10 20:50:00,54.1,36.9,30.10,ESE,121,0.0,0.0,52,0.00,,CLR,0.00,VWS V14.01,2013-03-11 00:50:00,
2013-03-10 20:55:00,53.9,37.7,30.10,ESE,121,0.0,0.0,54,0.00,,CLR,0.00,VWS V14.01,2013-03-11 00:55:00,
2013-03-10 21:00:00,53.8,38.0,30.10,ESE,121,0.0,0.0,55,0.00,,CLR,0.00,VWS V14.01,2013-03-11 01:00:00,
2013-03-10 21:05:00,53.6,37.4,30.10,ESE,121,0.0,0.0,54,0.00,,CLR,0.00,VWS V14.01,2013-03-11 01:05:00,
2013-03-10 21:10:00,53.6,37.4,30.10,ESE,121,0.0,0.0,54,0.00,,CLR,0.00,VWS V14.01,2013-03-11 01:10:00,
2013-03-10 21:15:00,53.8,37.6,30.10,ESE,121,0.0,0.0,54,0.00,,CLR,0.00,VWS V14.01,2013-03-11 01:15:00,
2013-03-10 21:20:00,53.6,37.4,30.10,ESE,121,0.0,0.0,54,0.00,,CLR,0.00,VWS V14.01,2013-03-11 01:20:00,
2013-03-10 21:25:00,53.3,36.6,30.10,ESE,121,0.0,0.0,53,0.00,,CLR,0.00,VWS V14.01,2013-03-11 01:25:00,
2013-03-10 21:30:00,53.3,37.6,30.10,ESE,121,0.0,0.0,55,0.00,,CLR,0.00,VWS V14.01,2013-03-11 01:30:00,
2013-03-10 21:35:00,53.2,37.5,30.10,ESE,121,0.0,0.0,55,0.00,,CLR,0.00,VWS V14.01,2013-03-11 01:35:00,
2013-03-10 21:40:00,53.1,36.9,30.10,ESE,121,0.0,0.0,54,0.00,,CLR,0.00,VWS V14.01,2013-03-11 01:40:00,
2013-03-10 21:45:00,53.1,37.4,30.10,ESE,121,0.0,1.0,55,0.00,,CLR,0.00,VWS V14.01,2013-03-11 01:45:00,
2013-03-10 21:50:00,52.8,37.1,30.10,ESE,121,0.0,0.0,55,0.00,,CLR,0.00,VWS V14.01,2013-03-11 01:50:00,
2013-03-10 21:55:00,52.6,38.3,30.10,ESE,121,0.0,0.0,58,0.00,,CLR,0.00,VWS V14.01,2013-03-11 01:55:00,
2013-03-10 22:00:00,52.5,37.3,30.11,ESE,121,0.0,0.0,56,0.00,,CLR,0.00,VWS V14.01,2013-03-11 02:00:00,
2013-03-10 22:05:00,52.3,37.1,30.11,ESE,121,0.0,0.0,56,0.00,,CLR,0.00,VWS V14.01,2013-03-11 02:05:00,
2013-03-10 22:10:00,52.0,36.8,30.11,ESE,121,0.0,0.0,56,0.00,,CLR,0.00,VWS V14.01,2013-03-11 02:10:00,
2013-03-10 22:15:00,51.7,36.5,30.10,ESE,121,0.0,0.0,56,0.00,,CLR,0.00,VWS V14.01,2013-03-11 02:15:00,
2013-03-10 22:20:00,51.6,36.9,30.10,ESE,121,0.0,0.0,57,0.00,,CLR,0.00,VWS V14.01,2013-03-11 02:20:00,
2013-03-10 22:25:00,51.3,37.0,30.10,ESE,121,0.0,0.0,58,0.00,,CLR,0.00,VWS V14.01,2013-03-11 02:25:00,
2013-03-10 22:30:00,51.1,37.3,30.11,ESE,121,0.0,0.0,59,0.00,,CLR,0.00,VWS V14.01,2013-03-11 02:30:00,
2013-03-10 22:35:00,51.0,37.2,30.11,ESE,121,0.0,0.0,59,0.00,,CLR,0.00,VWS V14.01,2013-03-11 02:35:00,
2013-03-10 22:40:00,50.7,36.9,30.11,ESE,121,0.0,0.0,59,0.00,,CLR,0.00,VWS V14.01,2013-03-11 02:40:00,
2013-03-10 22:45:00,50.4,37.0,30.10,ESE,121,0.0,1.0,60,0.00,,CLR,0.00,VWS V14.01,2013-03-11 02:45:00,
2013-03-10 22:50:00,50.1,37.2,30.10,ESE,121,0.0,0.0,61,0.00,,CLR,0.00,VWS V14.01,2013-03-11 02:50:00,
2013-03-10 22:55:00,49.9,37.4,30.10,ESE,121,0.0,0.0,62,0.00,,CLR,0.00,VWS V14.01,2013-03-11 02:55:00,
2013-03-10 23:00:00,49.8,37.3,30.10,ESE,121,0.0,0.0,62,0.00,,CLR,0.00,VWS V14.01,2013-03-11 03:00:00,
2013-03-10 23:05:00,49.6,37.5,30.10,ESE,121,0.0,0.0,63,0.00,,CLR,0.00,VWS V14.01,2013-03-11 03:05:00,
2013-03-10 23:10:00,49.5,37.4,30.10,ESE,121,0.0,0.0,63,0.00,,CLR,0.00,VWS V14.01,2013-03-11 03:10:00,
2013-03-10 23:15:00,49.4,37.8,30.10,ESE,121,0.0,0.0,64,0.00,,CLR,0.00,VWS V14.01,2013-03-11 03:15:00,
2013-03-10 23:20:00,49.2,38.0,30.10,ESE,121,0.0,0.0,65,0.00,,CLR,0.00,VWS V14.01,2013-03-11 03:20:00,
2013-03-10 23:25:00,48.9,37.7,30.10,ESE,121,0.0,0.0,65,0.00,,CLR,0.00,VWS V14.01,2013-03-11 03:25:00,
2013-03-10 23:30:00,48.8,37.6,30.10,ESE,121,0.0,1.0,65,0.00,,CLR,0.00,VWS V14.01,2013-03-11 03:30:00,
2013-03-10 23:35:00,48.6,37.4,30.10,ESE,122,2.0,2.0,65,0.00,,CLR,0.00,VWS V14.01,2013-03-11 03:35:00,
2013-03-10 23:40:00,48.5,37.7,30.10,ESE,122,0.0,3.0,66,0.00,,CLR,0.00,VWS V14.01,2013-03-11 03:40:00,
2013-03-10 23:45:00,48.2,37.8,30.10,SE,137,3.0,4.0,67,0.00,,CLR,0.00,VWS V14.01,2013-03-11 03:45:00,
2013-03-10 23:50:00,48.3,38.2,30.10,SSE,149,2.0,4.0,68,0.00,,CLR,0.00,VWS V14.01,2013-03-11 03:50:00,
2013-03-10 23:55:00,49.2,38.3,30.10,SE,141,4.0,5.0,66,0.00,,CLR,0.00,VWS V14.01,2013-03-11 03:55:00,